Time;durP1;ratioP1;P1;durP2;ratioP2;P2;SDS_P1;SDS_P2;PMS_P1;PMS_P2;Temp;Humidity;BMP_temperature;BMP_pressure;BME280_temperature;BME280_humidity;BME280_pressure;Samples;Min_cycle;Max_cycle;Signal;HPM_P1;HPM_P2
2023/06/01 00:01:42;;;;;;;6.97;3.07;;;;;;;17.09;49.20;99527.16;5048554;28;20280;-82
2023/06/01 00:04:09;;;;;;;3.23;2.30;;;;;;;17.09;49.12;99521.84;5047500;28;20304;-85
2023/06/01 00:06:35;;;;;;;3.67;2.47;;;;;;;17.09;49.23;99521.84;5048637;28;20608;-85
2023/06/01 00:09:02;;;;;;;2.60;2.40;;;;;;;17.09;49.25;99516.53;5047605;28;20479;-82
2023/06/01 00:11:27;;;;;;;4.43;2.20;;;;;;;17.06;49.27;99510.69;5049117;28;21007;-82
2023/06/01 00:13:53;;;;;;;6.00;2.97;;;;;;;17.03;49.16;99512.63;5050154;28;20899;-86
2023/06/01 00:16:19;;;;;;;4.97;2.77;;;;;;;17.01;49.22;99521.72;5049489;28;20229;-82
2023/06/01 00:18:45;;;;;;;3.07;2.87;;;;;;;16.96;49.26;99516.84;5046769;28;20467;-86
2023/06/01 00:21:11;;;;;;;6.37;3.33;;;;;;;16.95;49.38;99515.16;5049867;28;20708;-83
2023/06/01 00:23:36;;;;;;;5.07;2.27;;;;;;;16.94;49.53;99518.81;5048375;28;20497;-82
2023/06/01 00:26:02;;;;;;;4.23;2.73;;;;;;;16.91;49.79;99521.75;5049027;28;20249;-82
2023/06/01 00:28:28;;;;;;;3.93;2.90;;;;;;;16.85;50.06;99522.31;5048829;28;20209;-82
2023/06/01 00:30:53;;;;;;;3.37;2.80;;;;;;;16.80;50.18;99520.06;5049783;28;20215;-82
2023/06/01 00:33:20;;;;;;;5.20;2.87;;;;;;;16.79;50.21;99512.22;5051035;28;20680;-82
2023/06/01 00:35:46;;;;;;;2.70;2.30;;;;;;;16.80;50.91;99513.94;5042070;28;20456;-84
2023/06/01 00:38:11;;;;;;;3.13;2.40;;;;;;;16.82;50.87;99506.63;5048482;28;20247;-83
2023/06/01 00:40:37;;;;;;;5.73;3.17;;;;;;;16.83;50.66;99508.34;5049905;28;20471;-84
2023/06/01 00:43:02;;;;;;;4.73;2.77;;;;;;;16.82;50.71;99506.63;5047258;28;20232;-86
2023/06/01 00:45:28;;;;;;;3.30;2.43;;;;;;;16.73;51.15;99507.47;5048636;28;20284;-83
2023/06/01 00:47:53;;;;;;;3.50;2.97;;;;;;;16.59;51.70;99501.59;5049024;28;20321;-84
2023/06/01 00:50:19;;;;;;;2.67;2.47;;;;;;;16.47;51.92;99505.38;5051127;28;20713;-85
2023/06/01 00:52:47;;;;;;;4.20;3.00;;;;;;;16.36;52.48;99503.69;5051175;28;20223;-84
2023/06/01 00:55:12;;;;;;;3.70;2.97;;;;;;;16.23;52.54;99512.81;5052934;28;20787;-82
2023/06/01 00:57:43;;;;;;;4.77;3.23;;;;;;;16.18;52.81;99517.72;5055612;28;21017;-83
2023/06/01 01:00:10;;;;;;;3.63;3.00;;;;;;;16.17;52.72;99505.44;5051984;28;20502;-86
2023/06/01 01:02:40;;;;;;;4.53;3.03;;;;;;;16.18;52.76;99504.47;5054988;28;20271;-85
2023/06/01 01:05:09;;;;;;;3.33;2.78;;;;;;;16.22;52.88;99503.22;5050975;28;20465;-86
2023/06/01 01:07:43;;;;;;;3.60;3.30;;;;;;;16.25;53.00;99498.47;5052718;28;20227;-83
2023/06/01 01:10:39;;;;;;;4.20;3.77;;;;;;;16.20;53.41;99506.00;5059238;28;20493;-82
2023/06/01 01:13:11;;;;;;;3.30;3.00;;;;;;;16.15;53.37;99505.59;5048480;28;20486;-85
2023/06/01 01:15:48;;;;;;;3.50;2.33;;;;;;;16.17;53.28;99506.25;5052048;28;20478;-86
2023/06/01 01:18:25;;;;;;;4.47;2.73;;;;;;;16.19;53.01;99506.97;5051427;28;20972;-83
2023/06/01 01:20:58;;;;;;;2.93;2.50;;;;;;;16.19;53.17;99512.28;5051988;28;20472;-82
2023/06/01 01:23:58;;;;;;;5.23;2.47;;;;;;;16.19;53.11;99506.13;5053337;28;21031;-84
2023/06/01 01:26:42;;;;;;;4.13;2.95;;;;;;;16.17;52.98;99505.44;5069888;28;20484;-82
2023/06/01 01:29:13;;;;;;;4.60;2.27;;;;;;;16.18;53.19;99512.44;5053177;28;20329;-84
2023/06/01 01:31:40;;;;;;;3.73;3.10;;;;;;;16.09;53.18;99514.06;5052866;28;20735;-83
2023/06/01 01:34:07;;;;;;;4.18;2.75;;;;;;;16.05;53.45;99507.38;5051665;28;20455;-83
2023/06/01 01:36:34;;;;;;;4.43;3.30;;;;;;;16.03;54.09;99510.13;5052342;28;20618;-82
2023/06/01 01:38:59;;;;;;;3.53;3.20;;;;;;;15.99;53.92;99519.34;5056165;28;20519;-84
2023/06/01 01:41:25;;;;;;;4.10;2.50;;;;;;;15.96;54.07;99514.31;5054508;28;20912;-82
2023/06/01 01:43:53;;;;;;;6.57;3.60;;;;;;;15.95;53.96;99511.78;5050356;28;20227;-84
2023/06/01 01:46:27;;;;;;;4.20;2.67;;;;;;;15.93;54.10;99512.78;5052209;28;20855;-82
2023/06/01 01:49:11;;;;;;;3.13;2.65;;;;;;;15.95;53.96;99511.78;5054331;28;20474;-83
2023/06/01 01:52:09;;;;;;;3.00;2.57;;;;;;;15.97;53.85;99515.97;5050631;28;20592;-83
2023/06/01 01:54:39;;;;;;;4.47;3.30;;;;;;;15.96;53.72;99510.81;5067676;28;21046;-81
2023/06/01 01:57:07;;;;;;;3.13;2.67;;;;;;;15.97;53.77;99510.69;5073819;28;20471;-81
2023/06/01 01:59:33;;;;;;;6.80;3.58;;;;;;;15.99;53.64;99514.03;5072001;28;20482;-81
2023/06/01 02:01:59;;;;;;;4.60;3.50;;;;;;;15.97;53.87;99509.84;5065284;28;20728;-82
2023/06/01 02:04:25;;;;;;;4.80;3.83;;;;;;;15.93;53.81;99511.91;5067755;28;20591;-82
2023/06/01 02:06:51;;;;;;;3.17;2.87;;;;;;;15.90;53.83;99515.69;5072965;28;20241;-82
2023/06/01 02:09:16;;;;;;;3.40;3.10;;;;;;;15.90;54.03;99510.41;5088013;28;20467;-81
2023/06/01 02:11:43;;;;;;;5.50;3.27;;;;;;;15.88;54.07;99507.03;5070136;28;20200;-82
2023/06/01 02:14:09;;;;;;;4.25;3.40;;;;;;;15.85;54.26;99514.38;5070009;28;20231;-83
2023/06/01 02:16:35;;;;;;;3.67;2.23;;;;;;;15.85;54.35;99519.69;5072847;28;20229;-81
2023/06/01 02:19:02;;;;;;;4.37;3.10;;;;;;;15.82;54.28;99512.00;5070024;28;20454;-81
2023/06/01 02:21:28;;;;;;;3.17;2.87;;;;;;;15.81;54.36;99511.19;5071767;28;20462;-81
2023/06/01 02:24:04;;;;;;;6.15;3.40;;;;;;;15.82;54.24;99510.19;5070517;28;20475;-81
2023/06/01 02:26:30;;;;;;;5.53;3.10;;;;;;;15.82;54.44;99518.13;5076589;28;20261;-82
2023/06/01 02:28:56;;;;;;;4.27;3.50;;;;;;;15.81;54.27;99505.88;5070131;28;20209;-81
2023/06/01 02:31:22;;;;;;;5.17;4.77;;;;;;;15.80;54.25;99513.97;5070274;28;20480;-82
2023/06/01 02:33:47;;;;;;;5.68;4.00;;;;;;;15.76;54.92;99512.56;5059717;28;20852;-84
2023/06/01 02:36:16;;;;;;;4.60;3.13;;;;;;;15.72;55.33;99506.69;5075677;28;20248;-84
2023/06/01 02:38:42;;;;;;;3.83;2.90;;;;;;;15.71;55.18;99507.66;5070268;28;20236;-81
2023/06/01 02:41:08;;;;;;;5.47;2.87;;;;;;;15.70;55.09;99513.91;5068740;28;20483;-85
2023/06/01 02:43:35;;;;;;;3.57;3.27;;;;;;;15.66;55.06;99501.88;5072853;28;20642;-81
2023/06/01 02:46:01;;;;;;;3.45;2.88;;;;;;;15.63;55.10;99505.63;5071940;28;20219;-83
2023/06/01 02:48:27;;;;;;;8.18;3.17;;;;;;;15.56;55.20;99511.59;5070976;28;20226;-82
2023/06/01 02:50:55;;;;;;;5.68;3.30;;;;;;;15.48;55.41;99506.97;5078544;28;20212;-84
2023/06/01 02:53:21;;;;;;;3.78;3.10;;;;;;;15.45;55.25;99500.13;5096089;28;20217;-82
2023/06/01 02:55:46;;;;;;;3.40;3.08;;;;;;;15.45;55.41;99500.13;5070245;28;20432;-81
2023/06/01 02:58:34;;;;;;;4.05;3.22;;;;;;;15.47;55.32;99507.91;5074165;28;20206;-84
2023/06/01 03:01:07;;;;;;;7.55;3.13;;;;;;;15.48;55.47;99506.97;5068624;28;20198;-84
2023/06/01 03:03:33;;;;;;;4.05;3.35;;;;;;;15.46;55.50;99506.25;5069857;28;20246;-84
2023/06/01 03:05:59;;;;;;;3.83;3.17;;;;;;;15.46;55.51;99506.25;5069752;28;20344;-81
2023/06/01 03:08:50;;;;;;;5.07;3.38;;;;;;;15.41;55.57;99513.75;5061840;28;20476;-81
2023/06/01 03:11:35;;;;;;;3.95;3.55;;;;;;;15.31;55.72;99512.84;5074643;28;20213;-84
2023/06/01 03:14:01;;;;;;;5.43;3.40;;;;;;;15.26;55.91;99519.38;5071097;28;20207;-84
2023/06/01 03:16:27;;;;;;;4.63;3.20;;;;;;;15.22;55.95;99511.81;5079315;28;20525;-84
2023/06/01 03:19:04;;;;;;;5.75;4.38;;;;;;;15.15;56.31;99516.78;5071374;28;20197;-81
2023/06/01 03:21:31;;;;;;;4.17;3.57;;;;;;;15.10;56.35;99513.69;5072374;28;20207;-84
2023/06/01 03:23:56;;;;;;;4.50;2.90;;;;;;;15.07;56.40;99521.03;5069866;28;20241;-83
2023/06/01 03:26:22;;;;;;;5.43;3.50;;;;;;;15.01;56.64;99517.97;5076976;28;20231;-81
2023/06/01 03:28:47;;;;;;;4.10;3.30;;;;;;;15.00;56.87;99518.06;5067661;28;20353;-81
2023/06/01 03:31:13;;;;;;;3.13;2.80;;;;;;;15.01;56.88;99515.31;5069593;28;20214;-81
2023/06/01 03:33:39;;;;;;;4.87;3.90;;;;;;;15.05;57.07;99518.53;5066254;28;20484;-84
2023/06/01 03:36:08;;;;;;;3.78;3.45;;;;;;;15.05;57.18;99511.44;5052303;28;20492;-85
2023/06/01 03:38:36;;;;;;;6.65;5.47;;;;;;;15.02;57.15;99514.34;5040577;28;20231;-84
2023/06/01 03:41:02;;;;;;;8.20;3.25;;;;;;;15.01;56.98;99511.81;5039623;28;20475;-83
2023/06/01 03:43:27;;;;;;;5.97;3.60;;;;;;;14.99;57.09;99522.53;5039991;28;20627;-83
2023/06/01 03:45:53;;;;;;;8.30;4.10;;;;;;;14.99;57.10;99524.34;5043623;28;20278;-83
2023/06/01 03:48:18;;;;;;;4.03;2.97;;;;;;;15.01;57.15;99525.03;5046242;28;20219;-83
2023/06/01 03:50:45;;;;;;;5.33;3.47;;;;;;;15.00;57.18;99529.50;5046394;28;20229;-83
2023/06/01 03:53:10;;;;;;;3.65;3.35;;;;;;;15.02;56.97;99526.72;5058688;28;20220;-83
2023/06/01 03:55:36;;;;;;;3.90;3.20;;;;;;;15.04;57.09;99538.88;5045487;28;20263;-83
2023/06/01 03:58:05;;;;;;;6.43;3.72;;;;;;;15.06;57.12;99536.06;5027338;28;20228;-83
2023/06/01 04:00:32;;;;;;;4.30;3.30;;;;;;;15.08;56.79;99539.44;5060059;28;20237;-84
2023/06/01 04:03:02;;;;;;;4.13;3.20;;;;;;;15.11;56.98;99535.69;5046424;28;20662;-83
2023/06/01 04:05:27;;;;;;;5.43;3.45;;;;;;;15.12;56.92;99542.66;5046757;28;20229;-83
2023/06/01 04:07:54;;;;;;;6.30;3.50;;;;;;;15.09;57.06;99546.38;5046526;28;20234;-83
2023/06/01 04:10:21;;;;;;;4.80;3.70;;;;;;;15.06;57.13;99549.28;5049653;28;20482;-83
2023/06/01 04:12:51;;;;;;;5.32;3.78;;;;;;;15.03;57.07;99547.75;5047726;28;20292;-83
2023/06/01 04:15:19;;;;;;;4.85;3.58;;;;;;;15.05;57.14;99547.63;5046601;28;20207;-84
2023/06/01 04:17:44;;;;;;;6.18;3.78;;;;;;;15.07;57.11;99544.84;5048288;28;20261;-83
2023/06/01 04:20:13;;;;;;;6.72;4.85;;;;;;;15.09;57.13;99551.69;5049875;28;20212;-84
2023/06/01 04:22:40;;;;;;;6.68;3.78;;;;;;;15.10;56.73;99549.91;5047994;28;20315;-83
2023/06/01 04:25:11;;;;;;;5.40;3.55;;;;;;;15.15;56.84;99550.31;5048886;28;20342;-83
2023/06/01 04:27:44;;;;;;;6.50;4.25;;;;;;;15.23;56.71;99547.91;5051249;28;20936;-83
2023/06/01 04:30:11;;;;;;;5.45;4.13;;;;;;;15.29;56.48;99557.13;5062110;28;20224;-83
2023/06/01 04:32:41;;;;;;;5.47;3.92;;;;;;;15.37;56.24;99559.97;5050183;28;20310;-83
2023/06/01 04:35:08;;;;;;;4.85;4.00;;;;;;;15.42;56.14;99565.72;5051052;28;20449;-83
2023/06/01 04:37:36;;;;;;;3.67;3.37;;;;;;;15.51;55.96;99564.94;5050910;28;20777;-83
2023/06/01 04:40:09;;;;;;;7.20;5.10;;;;;;;15.63;55.67;99563.88;5049667;28;20218;-84
2023/06/01 04:42:38;;;;;;;5.65;3.85;;;;;;;15.76;55.56;99563.69;5044952;28;20227;-84
2023/06/01 04:45:07;;;;;;;4.75;3.67;;;;;;;15.91;54.91;99558.91;5050028;28;20391;-84
2023/06/01 04:47:37;;;;;;;3.55;3.25;;;;;;;16.09;54.55;99562.63;5050360;28;20223;-84
2023/06/01 04:50:10;;;;;;;5.90;4.00;;;;;;;16.39;54.11;99558.22;5060341;28;20262;-84
2023/06/01 04:52:36;;;;;;;5.55;4.10;;;;;;;16.86;53.17;99560.28;5048474;28;20547;-84
2023/06/01 04:55:04;;;;;;;5.28;4.78;;;;;;;17.40;51.93;99564.16;5047075;28;20250;-84
2023/06/01 04:57:30;;;;;;;6.43;4.38;;;;;;;17.95;50.59;99560.81;5046042;28;20291;-84
2023/06/01 04:59:57;;;;;;;4.87;3.97;;;;;;;18.49;49.31;99559.97;5051634;28;20223;-84
2023/06/01 05:02:25;;;;;;;5.10;3.60;;;;;;;18.97;48.10;99548.16;5050946;28;20472;-84
2023/06/01 05:04:51;;;;;;;6.53;4.10;;;;;;;19.40;46.98;99556.34;5052239;28;20735;-83
2023/06/01 05:07:17;;;;;;;4.30;3.20;;;;;;;19.83;45.94;99568.81;5056966;28;20570;-83
2023/06/01 05:09:42;;;;;;;6.40;3.20;;;;;;;20.25;44.95;99565.34;5054826;28;20495;-83
2023/06/01 05:12:08;;;;;;;5.80;3.67;;;;;;;20.65;44.13;99561.13;5056891;28;20243;-83
2023/06/01 05:14:34;;;;;;;9.80;3.00;;;;;;;21.06;43.30;99565.69;5057842;28;20237;-82
2023/06/01 05:17:00;;;;;;;5.53;3.80;;;;;;;21.49;42.34;99563.72;5055367;28;20218;-83
2023/06/01 05:19:25;;;;;;;4.70;3.40;;;;;;;21.71;41.35;99557.69;5058325;28;20211;-82
2023/06/01 05:21:52;;;;;;;8.20;3.70;;;;;;;21.83;40.66;99560.81;5060843;28;20203;-83
2023/06/01 05:24:19;;;;;;;5.43;3.43;;;;;;;22.05;40.52;99564.59;5054525;28;20501;-83
2023/06/01 05:26:45;;;;;;;5.37;4.07;;;;;;;22.35;39.93;99562.97;5056989;28;20456;-83
2023/06/01 05:29:11;;;;;;;4.03;3.63;;;;;;;22.64;39.19;99562.31;5073947;28;20985;-83
2023/06/01 05:31:37;;;;;;;6.20;4.47;;;;;;;22.95;38.91;99561.44;5055406;28;20427;-82
2023/06/01 05:34:02;;;;;;;6.27;3.87;;;;;;;23.17;38.01;99566.00;5058591;28;20467;-84
2023/06/01 05:36:31;;;;;;;5.30;3.30;;;;;;;23.42;37.78;99561.25;5056840;28;20225;-84
2023/06/01 05:38:58;;;;;;;6.07;3.63;;;;;;;23.58;37.09;99564.81;5056248;28;20495;-84
2023/06/01 05:41:25;;;;;;;5.43;3.40;;;;;;;23.81;36.82;99556.72;5067011;28;20451;-83
2023/06/01 05:43:52;;;;;;;5.00;3.47;;;;;;;24.02;36.29;99572.91;5047964;28;20783;-83
2023/06/01 05:46:17;;;;;;;4.10;2.90;;;;;;;24.23;36.16;99563.28;5041802;28;20449;-83
2023/06/01 05:48:43;;;;;;;4.00;3.13;;;;;;;24.42;35.23;99565.34;5043833;28;20454;-83
2023/06/01 05:51:11;;;;;;;4.70;3.60;;;;;;;24.58;35.19;99567.03;5042250;28;20960;-83
2023/06/01 05:53:36;;;;;;;11.00;3.60;;;;;;;24.77;34.93;99557.53;5042858;28;20508;-83
2023/06/01 05:56:02;;;;;;;5.27;3.77;;;;;;;25.03;34.67;99553.41;5042246;28;20211;-83
2023/06/01 05:58:28;;;;;;;3.80;3.50;;;;;;;25.20;34.10;99549.47;5043295;28;20234;-84
2023/06/01 06:00:54;;;;;;;5.27;3.80;;;;;;;25.33;33.99;99546.91;5053798;28;20468;-83
2023/06/01 06:03:19;;;;;;;3.60;2.87;;;;;;;25.55;33.54;99544.16;5058223;28;20235;-83
2023/06/01 06:05:45;;;;;;;4.60;3.77;;;;;;;25.77;32.90;99550.31;5052139;28;20442;-83
2023/06/01 06:08:10;;;;;;;4.30;3.40;;;;;;;25.86;32.90;99549.16;5043992;28;20231;-83
2023/06/01 06:10:36;;;;;;;3.37;3.07;;;;;;;25.92;33.01;99558.28;5044486;28;20222;-84
2023/06/01 06:13:01;;;;;;;6.67;3.53;;;;;;;26.07;32.65;99563.56;5042086;28;20268;-83
2023/06/01 06:15:26;;;;;;;5.03;3.00;;;;;;;26.30;32.64;99560.53;5044720;28;20251;-83
2023/06/01 06:17:52;;;;;;;5.47;3.90;;;;;;;26.48;32.20;99552.75;5043870;28;20254;-84
2023/06/01 06:20:21;;;;;;;4.80;4.50;;;;;;;26.52;32.35;99554.03;5042912;28;20238;-83
2023/06/01 06:22:49;;;;;;;7.53;4.63;;;;;;;26.51;32.46;99554.19;5042024;28;20223;-84
2023/06/01 06:25:15;;;;;;;4.10;3.77;;;;;;;26.55;32.12;99556.31;5043024;28;20471;-83
2023/06/01 06:27:40;;;;;;;5.00;3.87;;;;;;;26.72;32.20;99554.09;5044392;28;20451;-83
2023/06/01 06:30:06;;;;;;;5.90;3.97;;;;;;;26.84;31.57;99546.22;5042933;28;20221;-83
2023/06/01 06:32:32;;;;;;;9.13;4.80;;;;;;;26.96;31.22;99551.84;5042012;28;20194;-84
2023/06/01 06:34:57;;;;;;;6.63;4.17;;;;;;;27.20;30.95;99553.16;5040791;28;20452;-83
2023/06/01 06:37:22;;;;;;;6.07;4.10;;;;;;;27.35;30.90;99553.75;5043056;28;20331;-83
2023/06/01 06:39:48;;;;;;;4.60;4.20;;;;;;;27.36;30.80;99555.44;5045572;28;20207;-83
2023/06/01 06:42:13;;;;;;;5.50;3.70;;;;;;;27.41;30.92;99552.94;5043438;28;20313;-83
2023/06/01 06:44:39;;;;;;;4.50;4.10;;;;;;;27.50;30.58;99548.97;5044167;28;20221;-82
2023/06/01 06:47:05;;;;;;;5.40;3.47;;;;;;;27.62;30.40;99551.03;5042046;28;20215;-84
2023/06/01 06:49:30;;;;;;;6.80;4.10;;;;;;;27.68;30.59;99552.88;5044681;28;20205;-83
2023/06/01 06:51:55;;;;;;;6.87;4.50;;;;;;;27.64;30.43;99555.19;5043294;28;20505;-84
2023/06/01 06:54:22;;;;;;;5.67;4.50;;;;;;;27.69;30.32;99557.25;5044412;28;20209;-84
2023/06/01 06:56:47;;;;;;;7.80;4.50;;;;;;;27.92;29.69;99557.66;5043502;28;20228;-84
2023/06/01 06:59:14;;;;;;;8.50;4.37;;;;;;;27.98;29.76;99556.00;5040471;28;20855;-84
2023/06/01 07:01:40;;;;;;;6.07;3.90;;;;;;;28.16;29.30;99558.00;5036317;28;20700;-83
2023/06/01 07:04:07;;;;;;;4.43;3.83;;;;;;;28.30;29.30;99556.91;5035629;28;20892;-83
2023/06/01 07:06:43;;;;;;;;;;;;;;;;;;;;;
2023/06/01 07:09:13;;;;;;;7.00;4.53;;;;;;;28.44;28.90;99553.13;5034491;28;20466;-83
2023/06/01 07:11:42;;;;;;;5.30;4.87;;;;;;;28.59;28.47;99555.53;5039766;28;20477;-83
2023/06/01 07:14:08;;;;;;;5.80;4.03;;;;;;;28.72;28.22;99548.41;5039891;28;20203;-83
2023/06/01 07:16:33;;;;;;;3.27;2.97;;;;;;;28.88;27.82;99548.72;5040188;28;20476;-83
2023/06/01 07:18:59;;;;;;;5.30;3.40;;;;;;;29.09;27.85;99544.03;5039124;28;20225;-83
2023/06/01 07:21:24;;;;;;;3.70;3.40;;;;;;;29.25;27.43;99543.47;5039120;28;20208;-83
2023/06/01 07:23:50;;;;;;;8.17;4.10;;;;;;;29.42;27.35;99543.75;5037458;28;20695;-83
2023/06/01 07:26:15;;;;;;;6.20;3.33;;;;;;;29.46;27.27;99544.97;5035098;28;20226;-83
2023/06/01 07:28:41;;;;;;;4.60;3.50;;;;;;;29.58;27.36;99546.94;5039112;28;20921;-84
2023/06/01 07:31:07;;;;;;;7.47;4.33;;;;;;;29.66;27.18;99549.38;5037213;28;20299;-83
2023/06/01 07:33:35;;;;;;;7.00;5.17;;;;;;;29.59;27.03;99549.41;5038229;28;21182;-83
2023/06/01 07:36:01;;;;;;;4.60;3.70;;;;;;;29.61;27.12;99550.00;5037829;28;20670;-84
2023/06/01 07:38:27;;;;;;;3.90;3.30;;;;;;;29.71;27.26;99539.53;5035878;28;20595;-83
2023/06/01 07:40:52;;;;;;;3.77;3.27;;;;;;;29.60;27.13;99540.25;5037283;28;20552;-83
2023/06/01 07:43:18;;;;;;;5.10;3.50;;;;;;;29.26;27.76;99541.59;5036864;28;20587;-84
2023/06/01 07:45:43;;;;;;;4.50;3.37;;;;;;;29.04;28.00;99541.16;5036956;28;20232;-83
2023/06/01 07:48:09;;;;;;;4.10;3.20;;;;;;;29.00;27.72;99529.91;5031143;28;20266;-83
2023/06/01 07:50:34;;;;;;;6.60;4.00;;;;;;;;;;5038698;28;20215;-83
2023/06/01 07:53:02;;;;;;;7.00;3.53;;;;;;;29.14;nan;99538.78;5040111;28;20221;-84
2023/06/01 07:55:32;;;;;;;6.43;3.80;;;;;;;29.12;nan;99538.16;5038337;28;20481;-84
2023/06/01 07:57:58;;;;;;;6.23;3.57;;;;;;;29.07;nan;99536.13;5040448;28;20223;-85
2023/06/01 08:00:23;;;;;;;5.33;3.10;;;;;;;29.17;nan;99530.22;5037267;28;20561;-82
2023/06/01 08:02:50;;;;;;;4.80;3.50;;;;;;;29.18;nan;99528.34;5037680;28;20271;-84
2023/06/01 08:05:17;;;;;;;6.57;3.77;;;;;;;29.13;nan;99529.00;5041838;28;20719;-85
2023/06/01 08:07:43;;;;;;;7.13;3.50;;;;;;;29.17;nan;99524.81;5041403;28;20476;-83
2023/06/01 08:10:10;;;;;;;4.03;3.20;;;;;;;29.11;nan;99521.13;5042263;28;21176;-86
2023/06/01 08:12:36;;;;;;;3.93;3.43;;;;;;;29.01;nan;99525.34;5049263;28;20477;-84
2023/06/01 08:15:03;;;;;;;5.50;3.70;;;;;;;28.86;nan;99536.44;5049002;28;20499;-86
2023/06/01 08:17:29;;;;;;;4.67;3.77;;;;;;;28.73;nan;99531.13;5044470;28;20905;-85
2023/06/01 08:19:55;;;;;;;4.20;3.10;;;;;;;28.66;nan;99525.78;5039641;28;21002;-83
2023/06/01 08:22:20;;;;;;;5.50;3.83;;;;;;;28.63;nan;99528.91;5040394;28;20588;-85
2023/06/01 08:24:47;;;;;;;4.87;3.93;;;;;;;28.60;nan;99523.97;5042620;28;21023;-86
2023/06/01 08:27:20;;;;;;;4.47;3.43;;;;;;;28.61;nan;99526.44;5041836;28;20230;-83
2023/06/01 08:29:47;;;;;;;5.27;2.80;;;;;;;28.57;nan;99532.47;5041213;28;20559;-85
2023/06/01 08:32:13;;;;;;;6.03;3.30;;;;;;;28.50;nan;99527.13;5041504;28;20468;-84
2023/06/01 08:34:38;;;;;;;5.93;4.10;;;;;;;28.08;nan;99526.63;5039585;28;20461;-86
2023/06/01 08:37:04;;;;;;;3.90;3.50;;;;;;;27.86;nan;99525.28;5041273;28;21117;-86
2023/06/01 08:39:30;;;;;;;7.03;3.77;;;;;;;27.86;nan;99526.09;5040190;28;20214;-85
2023/06/01 08:42:12;;;;;;;7.03;3.40;;;;;;;27.91;nan;99525.47;5041173;28;20519;-86
2023/06/01 08:44:40;;;;;;;6.30;3.33;;;;;;;28.07;nan;99524.19;5041863;28;20223;-84
2023/06/01 08:47:06;;;;;;;3.63;2.93;;;;;;;28.10;nan;99523.75;5043138;28;20988;-86
2023/06/01 08:49:33;;;;;;;3.00;2.70;;;;;;;28.06;nan;99522.50;5042456;28;20469;-85
2023/06/01 08:52:12;;;;;;;4.80;4.00;;;;;;;27.95;nan;99515.88;5041351;28;20471;-83
2023/06/01 08:54:39;;;;;;;4.93;2.80;;;;;;;27.81;nan;99515.09;5039038;28;20592;-83
2023/06/01 08:57:07;;;;;;;6.80;3.53;;;;;;;27.80;nan;99516.16;5038730;28;20480;-83
2023/06/01 08:59:34;;;;;;;7.50;3.30;;;;;;;27.88;nan;99510.53;5038496;28;20480;-82
2023/06/01 09:02:00;;;;;;;4.27;3.17;;;;;;;28.00;nan;99510.69;5047951;28;20503;-84
2023/06/01 09:04:26;;;;;;;3.67;3.27;;;;;;;28.06;nan;99500.91;5049466;28;20509;-85
2023/06/01 09:06:52;;;;;;;7.77;3.43;;;;;;;28.10;nan;99510.25;5063801;28;20230;-84
2023/06/01 09:09:17;;;;;;;6.73;3.47;;;;;;;28.16;nan;99506.66;5050052;28;20511;-88
2023/06/01 09:11:44;;;;;;;4.80;3.57;;;;;;;28.24;nan;99498.31;5055379;28;20687;-84
2023/06/01 09:14:25;;;;;;;7.57;3.70;;;;;;;28.25;nan;99500.00;5051159;28;20234;-84
2023/06/01 09:16:51;;;;;;;5.63;3.30;;;;;;;28.36;nan;99507.41;5052250;28;20489;-83
2023/06/01 09:19:21;;;;;;;4.73;3.43;;;;;;;28.31;nan;99501.84;5048939;28;20475;-90
2023/06/01 09:21:59;;;;;;;8.00;3.80;;;;;;;28.24;nan;99495.63;5055170;28;20542;-86
2023/06/01 09:24:26;;;;;;;4.70;3.43;;;;;;;28.39;nan;99490.78;5050396;28;20484;-85
2023/06/01 09:26:59;;;;;;;5.87;4.17;;;;;;;28.45;nan;99495.34;5050249;28;20722;-88
2023/06/01 09:29:26;;;;;;;5.90;3.30;;;;;;;28.44;nan;99488.28;5045018;28;20471;-85
2023/06/01 09:31:52;;;;;;;4.80;3.60;;;;;;;28.19;nan;99488.19;5047370;28;20480;-88
2023/06/01 09:34:19;;;;;;;4.50;3.60;;;;;;;28.24;nan;99490.22;5048104;28;20510;-87
2023/06/01 09:36:50;;;;;;;8.40;3.60;;;;;;;28.28;nan;99485.25;5049402;28;20497;-82
2023/06/01 09:39:18;;;;;;;6.17;4.47;;;;;;;28.31;nan;99476.69;5050753;28;20487;-82
2023/06/01 09:41:48;;;;;;;6.77;3.20;;;;;;;28.36;nan;99480.41;5052335;28;20594;-82
2023/06/01 09:44:21;;;;;;;4.90;3.33;;;;;;;28.34;nan;99477.09;5052550;28;20974;-82
2023/06/01 09:46:57;;;;;;;5.90;3.80;;;;;;;28.37;nan;99468.53;5050638;28;20485;-82
2023/06/01 09:49:24;;;;;;;5.83;3.57;;;;;;;28.30;nan;99475.88;5051467;28;20476;-82
2023/06/01 09:51:52;;;;;;;7.30;4.60;;;;;;;28.30;nan;99470.47;5051563;28;20476;-83
2023/06/01 09:54:29;;;;;;;5.00;3.37;;;;;;;28.30;nan;99462.38;5052606;28;20457;-82
2023/06/01 09:56:55;;;;;;;5.50;3.70;;;;;;;28.43;nan;99462.28;5047404;28;20469;-82
2023/06/01 09:59:25;;;;;;;6.50;4.10;;;;;;;28.60;nan;99461.81;5051179;28;20470;-82
2023/06/01 10:01:53;;;;;;;4.33;4.03;;;;;;;28.73;nan;99458.16;5051349;28;20511;-82
2023/06/01 10:04:23;;;;;;;5.10;3.20;;;;;;;28.92;nan;99453.63;5047641;28;21385;-84
2023/06/01 10:06:53;;;;;;;6.47;3.37;;;;;;;29.03;nan;99447.50;5046738;28;20496;-85
2023/06/01 10:09:21;;;;;;;4.83;3.40;;;;;;;29.18;nan;99445.31;5059268;28;20468;-85
2023/06/01 10:11:48;;;;;;;5.77;3.97;;;;;;;29.38;nan;99445.13;5045841;28;20863;-85
2023/06/01 10:14:17;;;;;;;3.50;3.13;;;;;;;29.49;nan;99448.97;5048646;28;20579;-85
2023/06/01 10:16:43;;;;;;;8.47;4.17;;;;;;;29.57;nan;99435.16;5046233;28;20489;-83
2023/06/01 10:19:12;;;;;;;4.67;3.83;;;;;;;29.52;nan;99443.09;5047184;28;20482;-83
2023/06/01 10:21:39;;;;;;;6.17;3.97;;;;;;;29.42;nan;99434.69;5044820;28;20490;-85
2023/06/01 10:24:07;;;;;;;6.10;4.43;;;;;;;29.51;nan;99433.31;5045254;28;20489;-83
2023/06/01 10:27:10;;;;;;;5.50;4.77;;;;;;;29.62;nan;99431.75;5045987;28;20499;-82
2023/06/01 10:29:36;;;;;;;5.33;3.87;;;;;;;29.62;nan;99419.03;5043870;28;20464;-83
2023/06/01 10:32:02;;;;;;;6.90;3.70;;;;;;;29.75;nan;99423.50;5048596;28;20694;-85
2023/06/01 10:34:37;;;;;;;5.10;4.37;;;;;;;29.83;nan;99417.75;5048762;28;20501;-84
2023/06/01 10:37:02;;;;;;;6.20;4.07;;;;;;;29.92;nan;99416.41;5045817;28;20245;-82
2023/06/01 10:39:28;;;;;;;4.90;4.10;;;;;;;30.01;nan;99414.22;5046742;28;20578;-85
2023/06/01 10:41:56;;;;;;;7.57;4.47;;;;;;;30.07;nan;99418.69;5049063;28;20601;-84
2023/06/01 10:44:40;;;;;;;5.50;4.27;;;;;;;30.14;nan;99411.31;5047618;28;20489;-83
2023/06/01 10:47:06;;;;;;;10.20;4.43;;;;;;;30.13;nan;99415.06;5047327;28;20800;-83
2023/06/01 10:49:46;;;;;;;4.57;4.20;;;;;;;30.06;nan;99403.50;5045811;28;20469;-83
2023/06/01 10:52:33;;;;;;;4.40;3.97;;;;;;;30.08;nan;99405.97;5045824;28;20234;-84
2023/06/01 10:55:10;;;;;;;5.50;3.83;;;;;;;29.92;nan;99402.03;5046675;28;20560;-83
2023/06/01 10:57:46;;;;;;;4.93;4.07;;;;;;;29.94;nan;99394.50;5042304;28;20487;-83
2023/06/01 11:00:12;;;;;;;6.30;3.80;;;;;;;30.03;nan;99387.72;5043030;28;20540;-84
2023/06/01 11:02:49;;;;;;;6.70;4.07;;;;;;;30.10;nan;99391.16;5040988;28;20466;-82
2023/06/01 11:05:36;;;;;;;4.97;4.20;;;;;;;30.03;nan;99395.84;5038516;28;20485;-83
2023/06/01 11:08:03;;;;;;;6.03;4.70;;;;;;;30.08;nan;99387.84;5040789;28;20489;-86
2023/06/01 11:10:54;;;;;;;9.27;4.10;;;;;;;30.14;nan;99384.22;5042400;28;20469;-83
2023/06/01 11:13:31;;;;;;;9.70;4.50;;;;;;;29.96;nan;99390.50;5052650;28;20473;-85
2023/06/01 11:16:07;;;;;;;4.93;4.00;;;;;;;29.93;nan;99379.31;5050382;28;20535;-83
2023/06/01 11:18:42;;;;;;;4.67;4.27;;;;;;;29.89;nan;99378.94;5046200;28;20854;-84
2023/06/01 11:21:15;;;;;;;5.03;4.53;;;;;;;29.88;nan;99377.28;5047041;28;20472;-83
2023/06/01 11:23:40;;;;;;;8.73;4.97;;;;;;;29.87;nan;99372.94;5047915;28;20492;-83
2023/06/01 11:26:07;;;;;;;6.23;4.07;;;;;;;29.95;nan;99374.50;5046081;28;20519;-86
2023/06/01 11:28:33;;;;;;;8.33;3.90;;;;;;;29.99;nan;99376.50;5046829;28;20251;-84
2023/06/01 11:31:02;;;;;;;6.93;4.63;;;;;;;30.03;nan;99362.50;5044649;28;20469;-84
2023/06/01 11:33:33;;;;;;;5.20;4.70;;;;;;;30.00;nan;99363.78;5044775;28;20469;-86
2023/06/01 11:35:59;;;;;;;4.13;3.73;;;;;;;29.90;nan;99366.25;5044408;28;20477;-85
2023/06/01 11:38:40;;;;;;;8.90;4.33;;;;;;;29.85;nan;99364.22;5045016;28;20494;-84
2023/06/01 11:41:06;;;;;;;5.80;4.07;;;;;;;29.83;nan;99365.50;5047068;28;20457;-83
2023/06/01 11:43:32;;;;;;;4.80;3.90;;;;;;;29.83;nan;99357.38;5044868;28;20504;-84
2023/06/01 11:46:09;;;;;;;7.10;4.20;;;;;;;29.83;nan;99360.91;5046327;28;20473;-85
2023/06/01 11:48:35;;;;;;;7.47;3.93;;;;;;;29.84;nan;99356.31;5046594;28;20459;-84